createdAt,value
2018-01-27T00:01:48.576Z,3.50
2018-01-27T00:04:16.951Z,3.60
2018-01-27T00:06:45.649Z,3.60
2018-01-27T00:09:16.375Z,3.70
2018-01-27T00:11:44.719Z,3.50
2018-01-27T00:14:13.462Z,3.50
2018-01-27T00:16:42.598Z,3.30
2018-01-27T00:19:10.949Z,3.30
2018-01-27T00:21:40.624Z,3.30
2018-01-27T00:24:08.977Z,3.30
2018-01-27T00:26:37.337Z,3.40
2018-01-27T00:29:05.828Z,3.30
2018-01-27T00:31:34.196Z,3.40
2018-01-27T00:34:04.126Z,3.50
2018-01-27T00:36:34.646Z,3.40
2018-01-27T00:39:03.027Z,3.40
2018-01-27T00:41:31.846Z,3.50
2018-01-27T00:44:00.357Z,3.50
2018-01-27T00:46:29.664Z,3.50
2018-01-27T00:48:58.790Z,3.40
2018-01-27T00:51:27.270Z,3.30
2018-01-27T00:53:55.630Z,3.30
2018-01-27T00:56:23.998Z,3.40
2018-01-27T00:58:55.502Z,3.30
2018-01-27T01:01:23.853Z,3.30
2018-01-27T01:03:52.218Z,3.40
2018-01-27T01:06:20.627Z,3.30
2018-01-27T01:08:49.484Z,3.40
2018-01-27T01:11:17.840Z,3.40
2018-01-27T01:13:47.120Z,3.40
2018-01-27T01:16:15.479Z,3.40
2018-01-27T01:18:43.844Z,3.30
2018-01-27T01:21:12.226Z,3.30
2018-01-27T01:23:41.300Z,3.40
2018-01-27T01:26:09.647Z,3.30
2018-01-27T01:28:38.211Z,3.20
2018-01-27T01:31:06.569Z,3.30
2018-01-27T01:33:34.920Z,3.40
2018-01-27T01:36:04.978Z,3.30
2018-01-27T01:38:33.326Z,3.40
2018-01-27T01:41:01.693Z,3.40
2018-01-27T01:43:35.958Z,3.30
2018-01-27T01:46:05.101Z,3.30
2018-01-27T01:48:33.456Z,3.30
2018-01-27T01:51:02.889Z,3.30
2018-01-27T01:53:31.241Z,3.30
2018-01-27T01:56:00.385Z,3.10
2018-01-27T01:58:29.115Z,3.20
2018-01-27T02:00:57.463Z,3.20
2018-01-27T02:03:25.820Z,3.20
2018-01-27T02:05:54.248Z,3.10
2018-01-27T02:08:22.608Z,3.10
2018-01-27T02:10:51.241Z,3.10
2018-01-27T02:13:21.882Z,3.20
2018-01-27T02:15:50.226Z,3.20
2018-01-27T02:18:19.370Z,3.10
2018-01-27T02:20:47.878Z,3.10
2018-01-27T02:23:16.525Z,3.10
2018-01-27T02:25:44.893Z,3.00
2018-01-27T02:28:13.382Z,2.90
2018-01-27T02:30:41.745Z,2.90
2018-01-27T02:33:10.099Z,2.80
2018-01-27T02:35:39.346Z,2.70
2018-01-27T02:38:07.723Z,2.70
2018-01-27T02:40:36.102Z,2.70
2018-01-27T02:43:04.597Z,2.60
2018-01-27T02:45:33.731Z,2.70
2018-01-27T02:48:02.134Z,2.70
2018-01-27T02:50:32.054Z,2.70
2018-01-27T02:53:00.406Z,2.70
2018-01-27T02:55:29.546Z,2.70
2018-01-27T02:57:57.984Z,2.60
2018-01-27T03:00:27.959Z,2.40
2018-01-27T03:02:56.375Z,2.40
2018-01-27T03:05:24.780Z,2.40
2018-01-27T03:07:53.136Z,2.40
2018-01-27T03:10:22.262Z,2.40
2018-01-27T03:12:51.034Z,2.40
2018-01-27T03:15:21.637Z,2.20
2018-01-27T03:17:50.058Z,2.20
2018-01-27T03:20:19.406Z,2.40
2018-01-27T03:22:47.865Z,2.40
2018-01-27T03:25:16.238Z,2.50
2018-01-27T03:27:44.845Z,2.30
2018-01-27T03:30:13.224Z,2.20
2018-01-27T03:32:41.591Z,2.30
2018-01-27T03:35:09.999Z,2.30
2018-01-27T03:37:38.413Z,2.20
2018-01-27T03:40:07.552Z,2.20
2018-01-27T03:42:36.136Z,2.20
2018-01-27T03:45:04.503Z,2.20
2018-01-27T03:47:32.880Z,2.10
2018-01-27T03:50:01.280Z,2.10
2018-01-27T03:52:29.646Z,2.30
2018-01-27T03:54:58.018Z,2.30
2018-01-27T03:57:26.633Z,2.30
2018-01-27T03:59:55.025Z,2.40
2018-01-27T04:02:25.843Z,2.30
2018-01-27T04:04:54.961Z,2.30
2018-01-27T04:07:24.101Z,2.20
2018-01-27T04:09:52.447Z,2.20
2018-01-27T04:12:21.710Z,2.10
2018-01-27T04:14:50.362Z,2.20
2018-01-27T04:17:18.735Z,2.20
2018-01-27T04:19:47.341Z,2.20
2018-01-27T04:22:15.702Z,2.20
2018-01-27T04:24:44.065Z,2.20
2018-01-27T04:27:15.689Z,2.30
2018-01-27T04:29:44.850Z,2.20
2018-01-27T04:32:13.219Z,2.20
2018-01-27T04:34:41.616Z,2.10
2018-01-27T04:37:09.978Z,2.20
2018-01-27T04:39:38.348Z,2.10
2018-01-27T04:42:06.961Z,2.00
2018-01-27T04:44:35.320Z,2.00
2018-01-27T04:47:03.699Z,1.90
2018-01-27T04:49:32.208Z,1.90
2018-01-27T04:52:01.518Z,2.00
2018-01-27T04:54:29.875Z,2.10
2018-01-27T04:56:58.447Z,2.10
2018-01-27T04:59:26.801Z,2.00
2018-01-27T05:01:55.169Z,1.90
2018-01-27T05:04:25.242Z,1.80
2018-01-27T05:06:53.619Z,1.70
2018-01-27T05:09:21.999Z,1.70
2018-01-27T05:11:50.493Z,1.70
2018-01-27T05:14:19.639Z,1.70
2018-01-27T05:16:48.306Z,1.60
2018-01-27T05:19:17.506Z,1.70
2018-01-27T05:21:45.925Z,1.80
2018-01-27T05:24:14.445Z,1.90
2018-01-27T05:26:43.760Z,1.90
2018-01-27T05:29:14.416Z,1.90
2018-01-27T05:31:42.769Z,1.80
2018-01-27T05:34:11.340Z,1.80
2018-01-27T05:36:40.505Z,1.70
2018-01-27T05:39:08.872Z,1.70
2018-01-27T05:41:37.582Z,1.70
2018-01-27T05:44:05.940Z,1.80
2018-01-27T05:46:35.070Z,1.80
2018-01-27T05:49:04.433Z,1.80
2018-01-27T05:51:32.816Z,1.70
2018-01-27T05:54:02.772Z,1.60
2018-01-27T05:56:32.135Z,1.40
2018-01-27T05:59:00.589Z,1.40
2018-01-27T06:01:28.965Z,1.20
2018-01-27T06:03:57.399Z,1.10
2018-01-27T06:06:26.702Z,1.10
2018-01-27T06:08:55.111Z,1.10
2018-01-27T06:11:23.610Z,0.90
2018-01-27T06:13:51.963Z,0.90
2018-01-27T06:16:20.314Z,1.00
2018-01-27T06:18:49.283Z,1.00
2018-01-27T06:21:19.290Z,0.90
2018-01-27T06:23:47.676Z,0.90
2018-01-27T06:26:16.467Z,0.80
2018-01-27T06:28:44.839Z,0.80
2018-01-27T06:31:13.268Z,0.80
2018-01-27T06:33:42.436Z,1.00
2018-01-27T06:36:10.812Z,1.00
2018-01-27T06:38:39.163Z,0.90
2018-01-27T06:41:07.771Z,1.10
2018-01-27T06:43:36.146Z,1.00
2018-01-27T06:46:05.351Z,1.00
2018-01-27T06:48:33.933Z,1.10
2018-01-27T06:51:02.301Z,1.10
2018-01-27T06:53:30.689Z,1.00
2018-01-27T06:55:59.334Z,1.00
2018-01-27T06:58:27.682Z,1.10
2018-01-27T07:00:56.855Z,1.40
2018-01-27T07:03:25.424Z,1.30
2018-01-27T07:05:53.778Z,1.20
2018-01-27T07:08:23.685Z,1.30
2018-01-27T07:10:52.298Z,1.30
2018-01-27T07:13:21.428Z,1.20
2018-01-27T07:15:50.557Z,1.10
2018-01-27T07:18:18.963Z,1.10
2018-01-27T07:20:48.151Z,1.00
2018-01-27T07:23:16.526Z,1.10
2018-01-27T07:25:44.934Z,1.00
2018-01-27T07:28:13.291Z,1.10
2018-01-27T07:30:41.654Z,1.10
2018-01-27T07:33:11.756Z,1.20
2018-01-27T07:35:40.143Z,1.20
2018-01-27T07:38:08.513Z,1.30
2018-01-27T07:40:37.118Z,1.30
2018-01-27T07:43:05.488Z,1.30
2018-01-27T07:45:33.930Z,1.30
2018-01-27T07:48:03.304Z,1.40
2018-01-27T07:50:31.667Z,1.40
2018-01-27T07:53:00.053Z,1.40
2018-01-27T07:55:28.660Z,1.40
2018-01-27T07:57:57.128Z,1.40
2018-01-27T08:00:25.491Z,1.30
2018-01-27T08:02:54.008Z,1.20
2018-01-27T08:05:22.367Z,1.40
2018-01-27T08:07:50.723Z,1.40
2018-01-27T08:10:19.977Z,1.40
2018-01-27T08:12:49.873Z,1.50
2018-01-27T08:15:18.252Z,1.50
2018-01-27T08:17:46.736Z,1.60
2018-01-27T08:20:15.092Z,1.50
2018-01-27T08:22:43.645Z,1.30
2018-01-27T08:25:12.758Z,1.30
2018-01-27T08:27:41.137Z,1.50
2018-01-27T08:30:09.500Z,1.60
2018-01-27T08:32:38.042Z,1.60
2018-01-27T08:35:07.366Z,1.60
2018-01-27T08:37:37.222Z,1.60
2018-01-27T08:40:05.808Z,1.70
2018-01-27T08:42:34.172Z,1.70
2018-01-27T08:45:03.453Z,1.50
2018-01-27T08:47:32.788Z,1.60
2018-01-27T08:50:01.163Z,1.70
2018-01-27T08:52:29.531Z,1.70
2018-01-27T08:54:58.130Z,1.70
2018-01-27T08:57:26.493Z,1.90
2018-01-27T08:59:56.426Z,2.00
2018-01-27T09:02:24.990Z,1.80
2018-01-27T09:04:53.359Z,2.00
2018-01-27T09:07:21.730Z,1.90
2018-01-27T09:09:50.129Z,1.80
2018-01-27T09:12:18.514Z,2.00
2018-01-27T09:14:47.833Z,2.10
2018-01-27T09:17:16.273Z,2.10
2018-01-27T09:19:45.635Z,2.30
2018-01-27T09:22:14.787Z,2.10
2018-01-27T09:24:43.401Z,2.10
2018-01-27T09:27:13.265Z,2.40
2018-01-27T09:29:41.621Z,2.40
2018-01-27T09:32:10.788Z,2.10
2018-01-27T09:34:40.650Z,2.10
2018-01-27T09:37:09.754Z,2.10
2018-01-27T09:39:39.067Z,2.20
2018-01-27T09:42:07.444Z,2.20
2018-01-27T09:44:35.941Z,2.30
2018-01-27T09:47:04.338Z,2.00
2018-01-27T09:49:33.003Z,2.10
2018-01-27T09:52:01.386Z,2.20
2018-01-27T09:54:30.576Z,1.90
2018-01-27T09:56:58.940Z,2.00
2018-01-27T09:59:27.290Z,2.00
2018-01-27T10:01:56.754Z,1.90
2018-01-27T10:04:26.635Z,1.90
2018-01-27T10:06:55.029Z,2.10
2018-01-27T10:09:23.616Z,2.20
2018-01-27T10:11:51.974Z,2.40
2018-01-27T10:14:20.378Z,2.70
2018-01-27T10:16:48.782Z,2.40
2018-01-27T10:19:17.193Z,2.60
2018-01-27T10:21:45.559Z,2.40
2018-01-27T10:24:14.414Z,2.50
2018-01-27T10:26:43.868Z,2.70
2018-01-27T10:29:13.730Z,2.70
2018-01-27T10:31:42.124Z,2.60
2018-01-27T10:34:10.488Z,2.30
2018-01-27T10:36:38.856Z,2.20
2018-01-27T10:39:07.653Z,2.20
2018-01-27T10:41:36.736Z,2.30
2018-01-27T10:44:05.102Z,2.50
2018-01-27T10:46:33.719Z,2.80
2018-01-27T10:49:02.128Z,2.70
2018-01-27T10:51:31.250Z,3.00
2018-01-27T10:54:01.309Z,3.00
2018-01-27T10:56:29.699Z,3.10
2018-01-27T10:58:58.153Z,3.00
2018-01-27T11:01:26.561Z,2.90
2018-01-27T11:03:55.207Z,2.70
2018-01-27T11:06:23.586Z,2.80
2018-01-27T11:08:52.135Z,3.00
2018-01-27T11:11:20.497Z,3.00
2018-01-27T11:13:49.614Z,3.10
2018-01-27T11:16:20.595Z,3.00
2018-01-27T11:18:48.948Z,3.20
2018-01-27T11:21:17.300Z,3.20
2018-01-27T11:23:46.160Z,3.10
2018-01-27T11:26:14.526Z,3.10
2018-01-27T11:28:44.050Z,3.30
2018-01-27T11:31:12.496Z,3.30
2018-01-27T11:33:40.858Z,3.40
2018-01-27T11:36:09.227Z,3.30
2018-01-27T11:38:37.669Z,3.30
2018-01-27T11:41:06.782Z,3.40
2018-01-27T11:43:35.914Z,3.40
2018-01-27T11:46:04.394Z,3.30
2018-01-27T11:48:32.748Z,3.40
2018-01-27T11:51:01.099Z,3.20
2018-01-27T11:53:31.554Z,3.30
2018-01-27T11:56:00.451Z,3.20
2018-01-27T11:58:28.825Z,3.20
2018-01-27T12:00:57.477Z,3.30
2018-01-27T12:03:25.864Z,3.30
2018-01-27T12:05:55.089Z,3.60
2018-01-27T12:08:23.483Z,3.50
2018-01-27T12:10:51.843Z,3.30
2018-01-27T12:13:20.197Z,3.40
2018-01-27T12:15:49.447Z,3.20
2018-01-27T12:18:18.591Z,3.10
2018-01-27T12:20:47.718Z,3.40
2018-01-27T12:23:17.042Z,3.30
2018-01-27T12:25:45.395Z,3.40
2018-01-27T12:28:13.762Z,3.20
2018-01-27T12:30:43.307Z,3.10
2018-01-27T12:33:11.652Z,2.90
2018-01-27T12:35:40.017Z,2.90
2018-01-27T12:38:09.384Z,3.00
2018-01-27T12:40:37.738Z,3.00
2018-01-27T12:43:06.172Z,3.10
2018-01-27T12:45:35.455Z,3.20
2018-01-27T12:48:04.580Z,3.30
2018-01-27T12:50:32.959Z,3.20
2018-01-27T12:53:01.517Z,3.30
2018-01-27T12:55:30.643Z,3.20
2018-01-27T12:58:00.497Z,3.20
2018-01-27T13:00:28.938Z,3.20
2018-01-27T13:02:57.339Z,3.10
2018-01-27T13:05:25.712Z,3.30
2018-01-27T13:07:56.266Z,3.10
2018-01-27T13:10:25.365Z,3.20
2018-01-27T13:12:53.787Z,3.10
2018-01-27T13:15:23.245Z,3.00
2018-01-27T13:17:51.622Z,2.90
2018-01-27T13:20:20.021Z,3.20
2018-01-27T13:22:48.454Z,3.20
2018-01-27T13:25:16.917Z,3.20
2018-01-27T13:27:46.037Z,3.10
2018-01-27T13:30:14.449Z,3.10
2018-01-27T13:32:44.042Z,3.10
2018-01-27T13:35:14.141Z,3.10
2018-01-27T13:37:42.758Z,3.20
2018-01-27T13:40:11.128Z,3.20
2018-01-27T13:42:39.552Z,3.20
2018-01-27T13:45:09.137Z,3.30
2018-01-27T13:47:37.524Z,3.20
2018-01-27T13:50:06.690Z,2.90
2018-01-27T13:52:35.472Z,2.80
2018-01-27T13:55:03.859Z,2.90
2018-01-27T13:57:32.288Z,3.00
2018-01-27T14:00:00.965Z,3.00
2018-01-27T14:02:30.107Z,3.00
2018-01-27T14:04:58.581Z,3.00
2018-01-27T14:07:27.059Z,3.10
2018-01-27T14:09:55.444Z,3.20
2018-01-27T14:12:23.813Z,3.00
2018-01-27T14:14:52.281Z,3.00
2018-01-27T14:17:20.653Z,3.10
2018-01-27T14:19:49.013Z,3.20
2018-01-27T14:22:18.977Z,3.20
2018-01-27T14:24:48.101Z,3.20
2018-01-27T14:27:16.474Z,3.10
2018-01-27T14:29:44.987Z,3.30
2018-01-27T14:32:14.119Z,3.20
2018-01-27T14:34:42.950Z,3.20
2018-01-27T14:37:13.217Z,3.10
2018-01-27T14:39:41.571Z,3.20
2018-01-27T14:42:10.699Z,3.20
2018-01-27T14:44:39.100Z,3.10
2018-01-27T14:47:07.501Z,3.20
2018-01-27T14:49:35.860Z,3.20
2018-01-27T14:52:04.328Z,3.20
2018-01-27T14:54:32.740Z,3.30
2018-01-27T14:57:01.117Z,3.30
2018-01-27T14:59:29.512Z,3.30
2018-01-27T15:01:58.650Z,3.30
2018-01-27T15:04:27.037Z,3.30
2018-01-27T15:06:55.529Z,3.40
2018-01-27T15:09:23.885Z,3.40
2018-01-27T15:11:52.468Z,3.30
2018-01-27T15:14:22.630Z,3.40
2018-01-27T15:16:51.012Z,3.40
2018-01-27T15:19:19.417Z,3.40
2018-01-27T15:21:48.779Z,3.40
2018-01-27T15:24:17.143Z,3.30
2018-01-27T15:26:46.248Z,3.40
2018-01-27T15:29:15.043Z,3.40
2018-01-27T15:31:43.393Z,3.50
2018-01-27T15:34:11.753Z,3.50
2018-01-27T15:36:41.709Z,3.60
2018-01-27T15:39:10.848Z,3.70
2018-01-27T15:41:39.991Z,3.60
2018-01-27T15:44:08.598Z,3.50
2018-01-27T15:46:36.963Z,3.60
2018-01-27T15:49:06.144Z,3.60
2018-01-27T15:51:34.538Z,3.70
2018-01-27T15:54:03.803Z,3.70
2018-01-27T15:56:32.159Z,3.60
2018-01-27T15:59:01.368Z,3.50
2018-01-27T16:01:31.313Z,3.50
2018-01-27T16:04:00.413Z,3.50
2018-01-27T16:06:28.803Z,3.50
2018-01-27T16:08:57.181Z,3.60
2018-01-27T16:11:25.565Z,3.50
2018-01-27T16:13:54.254Z,3.50
2018-01-27T16:16:22.615Z,3.70
2018-01-27T16:18:50.975Z,3.50
2018-01-27T16:21:19.519Z,3.60
2018-01-27T16:23:47.874Z,3.60
2018-01-27T16:26:16.233Z,3.60
2018-01-27T16:28:44.637Z,3.70
2018-01-27T16:31:13.010Z,3.70
2018-01-27T16:33:41.401Z,3.70
2018-01-27T16:36:09.849Z,3.80
2018-01-27T16:38:38.510Z,3.70
2018-01-27T16:41:08.493Z,3.70
2018-01-27T16:43:37.048Z,3.80
2018-01-27T16:46:06.170Z,3.80
2018-01-27T16:48:34.530Z,3.80
2018-01-27T16:51:04.120Z,3.80
2018-01-27T16:53:32.482Z,3.80
2018-01-27T16:56:00.857Z,3.80
2018-01-27T16:58:29.329Z,3.80
2018-01-27T17:00:57.717Z,3.80
2018-01-27T17:03:26.226Z,3.80
2018-01-27T17:05:54.673Z,3.90
2018-01-27T17:08:23.033Z,4.00
2018-01-27T17:10:52.166Z,4.00
2018-01-27T17:13:20.610Z,4.00
2018-01-27T17:15:51.269Z,3.90
2018-01-27T17:18:19.638Z,3.90
2018-01-27T17:20:48.037Z,4.00
2018-01-27T17:23:16.385Z,4.00
2018-01-27T17:25:44.743Z,3.90
2018-01-27T17:28:15.240Z,3.80
2018-01-27T17:30:43.604Z,3.80
2018-01-27T17:33:11.956Z,3.90
2018-01-27T17:35:40.354Z,3.80
2018-01-27T17:38:08.723Z,3.70
2018-01-27T17:40:39.143Z,3.70
2018-01-27T17:43:07.536Z,3.70
2018-01-27T17:45:35.892Z,3.60
2018-01-27T17:48:04.312Z,3.70
2018-01-27T17:50:32.891Z,3.60
2018-01-27T17:53:02.289Z,3.60
2018-01-27T17:55:31.628Z,3.60
2018-01-27T17:58:00.977Z,3.60
2018-01-27T18:00:29.372Z,3.60
2018-01-27T18:02:58.492Z,3.60
2018-01-27T18:05:27.060Z,3.60
2018-01-27T18:07:55.421Z,3.60
2018-01-27T18:10:23.776Z,3.60
2018-01-27T18:12:52.627Z,3.70
2018-01-27T18:15:21.085Z,3.60
2018-01-27T18:17:50.553Z,3.60
2018-01-27T18:20:18.958Z,3.60
2018-01-27T18:22:47.314Z,3.60
2018-01-27T18:25:15.697Z,3.60
2018-01-27T18:27:44.186Z,3.60
2018-01-27T18:30:13.354Z,3.70
2018-01-27T18:32:42.478Z,3.60
2018-01-27T18:35:11.225Z,3.60
2018-01-27T18:37:40.427Z,3.60
2018-01-27T18:40:08.793Z,3.60
2018-01-27T18:42:38.823Z,3.60
2018-01-27T18:45:07.958Z,3.60
2018-01-27T18:47:36.315Z,3.60
2018-01-27T18:50:04.947Z,3.60
2018-01-27T18:52:33.299Z,3.60
2018-01-27T18:55:03.239Z,3.60
2018-01-27T18:57:31.700Z,3.50
2018-01-27T19:00:00.074Z,3.50
2018-01-27T19:02:28.434Z,3.50
2018-01-27T19:04:56.949Z,3.50
2018-01-27T19:07:26.200Z,3.60
2018-01-27T19:09:55.305Z,3.50
2018-01-27T19:12:23.750Z,3.50
2018-01-27T19:14:52.213Z,3.50
2018-01-27T19:17:20.614Z,3.40
2018-01-27T19:19:50.698Z,3.50
2018-01-27T19:22:19.070Z,3.50
2018-01-27T19:24:47.452Z,3.40
2018-01-27T19:27:16.143Z,3.40
2018-01-27T19:29:44.492Z,3.40
2018-01-27T19:32:14.390Z,3.40
2018-01-27T19:34:42.783Z,3.40
2018-01-27T19:37:11.947Z,3.30
2018-01-27T19:39:40.304Z,3.30
2018-01-27T19:42:08.687Z,3.30
2018-01-27T19:44:38.123Z,3.20
2018-01-27T19:47:07.290Z,3.20
2018-01-27T19:49:35.744Z,3.20
2018-01-27T19:52:04.569Z,3.20
2018-01-27T19:54:32.935Z,3.30
2018-01-27T19:57:01.696Z,3.30
2018-01-27T19:59:30.061Z,3.30
2018-01-27T20:01:58.413Z,3.20
2018-01-27T20:04:27.986Z,3.20
2018-01-27T20:06:56.349Z,3.30
2018-01-27T20:09:25.525Z,3.20
2018-01-27T20:11:53.931Z,3.30
2018-01-27T20:14:22.278Z,3.30
2018-01-27T20:16:50.626Z,3.30
2018-01-27T20:19:19.286Z,3.30
2018-01-27T20:21:48.446Z,3.40
2018-01-27T20:24:16.806Z,3.40
2018-01-27T20:26:45.420Z,3.40
2018-01-27T20:29:13.766Z,3.40
2018-01-27T20:31:42.125Z,3.40
2018-01-27T20:34:11.431Z,3.50
2018-01-27T20:36:39.794Z,3.50
2018-01-27T20:39:08.171Z,3.50
2018-01-27T20:41:37.399Z,3.60
2018-01-27T20:44:05.759Z,3.60
2018-01-27T20:46:37.502Z,3.70
2018-01-27T20:49:06.019Z,3.60
2018-01-27T20:51:34.411Z,3.70
2018-01-27T20:54:02.814Z,3.80
2018-01-27T20:56:31.838Z,3.70
2018-01-27T20:59:01.086Z,3.80
2018-01-27T21:01:29.446Z,3.80
2018-01-27T21:03:57.909Z,3.80
2018-01-27T21:06:27.082Z,3.90
2018-01-27T21:08:55.453Z,3.80
2018-01-27T21:11:25.645Z,3.80
2018-01-27T21:13:54.010Z,3.90
2018-01-27T21:16:22.368Z,3.90
2018-01-27T21:18:51.545Z,3.90
2018-01-27T21:21:20.674Z,3.90
2018-01-27T21:23:49.859Z,4.00
2018-01-27T21:26:18.374Z,4.00
2018-01-27T21:28:46.722Z,4.00
2018-01-27T21:31:15.079Z,4.00
2018-01-27T21:33:43.552Z,4.10
2018-01-27T21:36:11.954Z,4.10
2018-01-27T21:38:41.077Z,4.20
2018-01-27T21:41:09.545Z,4.20
2018-01-27T21:43:37.973Z,4.20
2018-01-27T21:46:06.329Z,4.20
2018-01-27T21:48:35.073Z,4.20
2018-01-27T21:51:04.213Z,4.30
2018-01-27T21:53:32.564Z,4.20
2018-01-27T21:56:01.142Z,4.20
2018-01-27T21:58:29.504Z,4.30
2018-01-27T22:00:58.683Z,4.30
2018-01-27T22:03:36.110Z,4.20
2018-01-27T22:06:04.492Z,4.30
2018-01-27T22:08:32.862Z,4.20
2018-01-27T22:11:02.320Z,4.30
2018-01-27T22:13:31.442Z,4.30
2018-01-27T22:16:00.558Z,4.30
2018-01-27T22:18:29.190Z,4.30
2018-01-27T22:20:57.537Z,4.30
2018-01-27T22:23:26.109Z,4.30
2018-01-27T22:25:54.720Z,4.40
2018-01-27T22:28:23.070Z,4.40
2018-01-27T22:30:52.240Z,4.40
2018-01-27T22:33:20.759Z,4.40
2018-01-27T22:35:49.169Z,4.40
2018-01-27T22:38:17.524Z,4.40
2018-01-27T22:40:46.043Z,4.40
2018-01-27T22:43:14.403Z,4.40
2018-01-27T22:45:42.771Z,4.40
2018-01-27T22:48:12.119Z,4.40
2018-01-27T22:50:40.554Z,4.40
2018-01-27T22:53:08.901Z,4.40
2018-01-27T22:55:37.286Z,4.40
2018-01-27T22:58:05.656Z,4.40
2018-01-27T23:00:36.341Z,4.40
2018-01-27T23:03:04.889Z,4.40
2018-01-27T23:05:34.015Z,4.50
2018-01-27T23:08:03.167Z,4.50
2018-01-27T23:10:31.588Z,4.50
2018-01-27T23:13:01.021Z,4.50
2018-01-27T23:15:29.372Z,4.50
2018-01-27T23:17:57.979Z,4.50
2018-01-27T23:20:26.338Z,4.50
2018-01-27T23:22:55.546Z,4.50
2018-01-27T23:25:24.156Z,4.50
2018-01-27T23:27:53.389Z,4.50
2018-01-27T23:30:21.814Z,4.50
2018-01-27T23:32:50.628Z,4.60
2018-01-27T23:35:19.841Z,4.60
2018-01-27T23:37:48.455Z,4.60
2018-01-27T23:40:17.058Z,4.60
2018-01-27T23:42:45.475Z,4.60
2018-01-27T23:45:14.676Z,4.70
2018-01-27T23:47:43.237Z,4.60
2018-01-27T23:50:11.707Z,4.70
2018-01-27T23:52:40.250Z,4.70
2018-01-27T23:55:08.834Z,4.60
2018-01-27T23:57:37.273Z,4.70
